sensor_id;sensor_type;location;lat;lon;timestamp;P1;durP1;ratioP1;P2;durP2;ratioP2
19030;SDS011;9648;51.130;13.978;2022-09-20T00:00:09;2.95;;;1.48;;
19030;SDS011;9648;51.130;13.978;2022-09-20T00:02:37;2.83;;;1.20;;
19030;SDS011;9648;51.130;13.978;2022-09-20T00:05:04;1.35;;;1.02;;
19030;SDS011;9648;51.130;13.978;2022-09-20T00:07:33;2.72;;;1.00;;
19030;SDS011;9648;51.130;13.978;2022-09-20T00:10:00;3.13;;;1.10;;
19030;SDS011;9648;51.130;13.978;2022-09-20T00:12:26;2.23;;;1.20;;
19030;SDS011;9648;51.130;13.978;2022-09-20T00:14:53;2.08;;;1.05;;
19030;SDS011;9648;51.130;13.978;2022-09-20T00:17:20;2.13;;;1.20;;
19030;SDS011;9648;51.130;13.978;2022-09-20T00:19:46;3.58;;;1.30;;
19030;SDS011;9648;51.130;13.978;2022-09-20T00:22:13;2.30;;;1.40;;
19030;SDS011;9648;51.130;13.978;2022-09-20T00:24:41;3.65;;;1.60;;
19030;SDS011;9648;51.130;13.978;2022-09-20T00:27:08;3.70;;;1.50;;
19030;SDS011;9648;51.130;13.978;2022-09-20T00:29:34;3.45;;;1.52;;
19030;SDS011;9648;51.130;13.978;2022-09-20T00:32:01;3.40;;;1.50;;
19030;SDS011;9648;51.130;13.978;2022-09-20T00:34:28;1.87;;;1.40;;
19030;SDS011;9648;51.130;13.978;2022-09-20T00:37:12;3.20;;;1.67;;
19030;SDS011;9648;51.130;13.978;2022-09-20T00:39:38;2.72;;;1.50;;
19030;SDS011;9648;51.130;13.978;2022-09-20T00:42:08;2.20;;;1.63;;
19030;SDS011;9648;51.130;13.978;2022-09-20T00:44:42;2.15;;;1.38;;
19030;SDS011;9648;51.130;13.978;2022-09-20T00:47:21;3.28;;;1.60;;
19030;SDS011;9648;51.130;13.978;2022-09-20T00:49:55;2.70;;;1.60;;
19030;SDS011;9648;51.130;13.978;2022-09-20T00:52:27;3.10;;;1.40;;
19030;SDS011;9648;51.130;13.978;2022-09-20T00:54:55;2.13;;;1.20;;
19030;SDS011;9648;51.130;13.978;2022-09-20T00:57:24;1.83;;;0.90;;
19030;SDS011;9648;51.130;13.978;2022-09-20T00:59:51;1.70;;;0.80;;
19030;SDS011;9648;51.130;13.978;2022-09-20T01:02:20;2.20;;;0.80;;
19030;SDS011;9648;51.130;13.978;2022-09-20T01:04:51;2.03;;;0.60;;
19030;SDS011;9648;51.130;13.978;2022-09-20T01:07:18;1.08;;;0.50;;
19030;SDS011;9648;51.130;13.978;2022-09-20T01:09:47;0.82;;;0.50;;
19030;SDS011;9648;51.130;13.978;2022-09-20T01:12:15;0.80;;;0.43;;
19030;SDS011;9648;51.130;13.978;2022-09-20T01:14:45;1.20;;;0.60;;
19030;SDS011;9648;51.130;13.978;2022-09-20T01:17:14;0.88;;;0.60;;
19030;SDS011;9648;51.130;13.978;2022-09-20T01:19:46;4.30;;;0.70;;
19030;SDS011;9648;51.130;13.978;2022-09-20T01:22:25;1.67;;;0.65;;
19030;SDS011;9648;51.130;13.978;2022-09-20T01:25:03;1.63;;;0.88;;
19030;SDS011;9648;51.130;13.978;2022-09-20T01:27:39;1.70;;;1.20;;
19030;SDS011;9648;51.130;13.978;2022-09-20T01:30:08;2.00;;;1.45;;
19030;SDS011;9648;51.130;13.978;2022-09-20T01:32:43;2.55;;;1.50;;
19030;SDS011;9648;51.130;13.978;2022-09-20T01:35:18;2.95;;;1.80;;
19030;SDS011;9648;51.130;13.978;2022-09-20T01:37:49;2.72;;;1.90;;
19030;SDS011;9648;51.130;13.978;2022-09-20T01:40:35;3.70;;;2.30;;
19030;SDS011;9648;51.130;13.978;2022-09-20T01:43:07;5.23;;;2.50;;
19030;SDS011;9648;51.130;13.978;2022-09-20T01:45:41;3.88;;;2.40;;
19030;SDS011;9648;51.130;13.978;2022-09-20T01:48:14;5.43;;;2.80;;
19030;SDS011;9648;51.130;13.978;2022-09-20T01:50:54;4.88;;;3.05;;
19030;SDS011;9648;51.130;13.978;2022-09-20T01:53:47;3.28;;;2.80;;
19030;SDS011;9648;51.130;13.978;2022-09-20T01:56:41;6.30;;;3.40;;
19030;SDS011;9648;51.130;13.978;2022-09-20T01:59:30;6.30;;;3.42;;
19030;SDS011;9648;51.130;13.978;2022-09-20T02:02:27;5.55;;;3.38;;
19030;SDS011;9648;51.130;13.978;2022-09-20T02:08:07;5.13;;;3.40;;
19030;SDS011;9648;51.130;13.978;2022-09-20T02:10:56;5.07;;;3.45;;
19030;SDS011;9648;51.130;13.978;2022-09-20T02:13:41;5.72;;;3.40;;
19030;SDS011;9648;51.130;13.978;2022-09-20T02:16:37;7.20;;;3.90;;
19030;SDS011;9648;51.130;13.978;2022-09-20T02:19:18;4.75;;;3.28;;
19030;SDS011;9648;51.130;13.978;2022-09-20T02:22:02;6.78;;;3.75;;
19030;SDS011;9648;51.130;13.978;2022-09-20T02:24:44;6.47;;;4.40;;
19030;SDS011;9648;51.130;13.978;2022-09-20T02:27:19;8.75;;;4.85;;
19030;SDS011;9648;51.130;13.978;2022-09-20T02:29:56;7.70;;;4.70;;
19030;SDS011;9648;51.130;13.978;2022-09-20T02:32:49;8.25;;;4.80;;
19030;SDS011;9648;51.130;13.978;2022-09-20T02:35:33;8.50;;;4.78;;
19030;SDS011;9648;51.130;13.978;2022-09-20T02:38:12;7.17;;;4.70;;
19030;SDS011;9648;51.130;13.978;2022-09-20T02:40:55;6.35;;;5.05;;
19030;SDS011;9648;51.130;13.978;2022-09-20T02:43:53;6.10;;;4.68;;
19030;SDS011;9648;51.130;13.978;2022-09-20T02:46:27;7.75;;;5.20;;
19030;SDS011;9648;51.130;13.978;2022-09-20T02:49:02;9.93;;;5.40;;
19030;SDS011;9648;51.130;13.978;2022-09-20T02:51:35;5.82;;;4.40;;
19030;SDS011;9648;51.130;13.978;2022-09-20T02:54:10;8.20;;;5.20;;
19030;SDS011;9648;51.130;13.978;2022-09-20T02:56:45;8.45;;;5.05;;
19030;SDS011;9648;51.130;13.978;2022-09-20T02:59:18;8.95;;;5.70;;
19030;SDS011;9648;51.130;13.978;2022-09-20T03:01:54;7.22;;;5.07;;
19030;SDS011;9648;51.130;13.978;2022-09-20T03:04:33;6.22;;;5.18;;
19030;SDS011;9648;51.130;13.978;2022-09-20T03:07:16;7.43;;;5.00;;
19030;SDS011;9648;51.130;13.978;2022-09-20T03:09:50;10.63;;;5.72;;
19030;SDS011;9648;51.130;13.978;2022-09-20T03:12:25;9.53;;;6.23;;
19030;SDS011;9648;51.130;13.978;2022-09-20T03:15:04;12.93;;;6.70;;
19030;SDS011;9648;51.130;13.978;2022-09-20T03:17:43;11.18;;;6.93;;
19030;SDS011;9648;51.130;13.978;2022-09-20T03:20:22;9.13;;;6.30;;
19030;SDS011;9648;51.130;13.978;2022-09-20T03:22:57;10.57;;;6.85;;
19030;SDS011;9648;51.130;13.978;2022-09-20T03:25:33;8.23;;;6.13;;
19030;SDS011;9648;51.130;13.978;2022-09-20T03:28:20;11.95;;;6.90;;
19030;SDS011;9648;51.130;13.978;2022-09-20T03:31:01;10.57;;;6.22;;
19030;SDS011;9648;51.130;13.978;2022-09-20T03:33:35;11.32;;;6.75;;
19030;SDS011;9648;51.130;13.978;2022-09-20T03:36:16;10.23;;;6.10;;
19030;SDS011;9648;51.130;13.978;2022-09-20T03:38:56;10.10;;;6.18;;
19030;SDS011;9648;51.130;13.978;2022-09-20T03:41:46;7.20;;;5.32;;
19030;SDS011;9648;51.130;13.978;2022-09-20T03:47:47;8.80;;;5.28;;
19030;SDS011;9648;51.130;13.978;2022-09-20T03:50:32;7.20;;;4.78;;
19030;SDS011;9648;51.130;13.978;2022-09-20T03:53:24;7.90;;;4.68;;
19030;SDS011;9648;51.130;13.978;2022-09-20T03:56:20;5.70;;;4.10;;
19030;SDS011;9648;51.130;13.978;2022-09-20T03:59:13;6.63;;;4.40;;
19030;SDS011;9648;51.130;13.978;2022-09-20T04:01:57;7.18;;;4.47;;
19030;SDS011;9648;51.130;13.978;2022-09-20T04:04:38;6.57;;;4.15;;
19030;SDS011;9648;51.130;13.978;2022-09-20T04:07:12;7.55;;;4.00;;
19030;SDS011;9648;51.130;13.978;2022-09-20T04:09:50;7.40;;;4.32;;
19030;SDS011;9648;51.130;13.978;2022-09-20T04:12:27;5.95;;;4.28;;
19030;SDS011;9648;51.130;13.978;2022-09-20T04:15:00;6.38;;;4.40;;
19030;SDS011;9648;51.130;13.978;2022-09-20T04:17:42;5.32;;;4.43;;
19030;SDS011;9648;51.130;13.978;2022-09-20T04:20:14;8.35;;;4.82;;
19030;SDS011;9648;51.130;13.978;2022-09-20T04:22:45;8.45;;;4.63;;
19030;SDS011;9648;51.130;13.978;2022-09-20T04:25:18;6.97;;;4.35;;
19030;SDS011;9648;51.130;13.978;2022-09-20T04:27:49;7.85;;;4.32;;
19030;SDS011;9648;51.130;13.978;2022-09-20T04:30:19;6.43;;;4.27;;
19030;SDS011;9648;51.130;13.978;2022-09-20T04:32:54;5.77;;;5.10;;
19030;SDS011;9648;51.130;13.978;2022-09-20T04:35:30;7.38;;;4.70;;
19030;SDS011;9648;51.130;13.978;2022-09-20T04:38:21;5.70;;;4.47;;
19030;SDS011;9648;51.130;13.978;2022-09-20T04:40:56;6.70;;;4.75;;
19030;SDS011;9648;51.130;13.978;2022-09-20T04:43:41;8.95;;;5.10;;
19030;SDS011;9648;51.130;13.978;2022-09-20T04:46:57;5.83;;;4.50;;
19030;SDS011;9648;51.130;13.978;2022-09-20T04:50:05;7.82;;;4.97;;
19030;SDS011;9648;51.130;13.978;2022-09-20T04:53:02;9.52;;;5.97;;
19030;SDS011;9648;51.130;13.978;2022-09-20T04:55:55;11.80;;;7.60;;
19030;SDS011;9648;51.130;13.978;2022-09-20T04:58:36;14.18;;;8.48;;
19030;SDS011;9648;51.130;13.978;2022-09-20T05:04:17;7.18;;;5.60;;
19030;SDS011;9648;51.130;13.978;2022-09-20T05:07:13;10.10;;;6.68;;
19030;SDS011;9648;51.130;13.978;2022-09-20T05:10:05;8.40;;;6.00;;
19030;SDS011;9648;51.130;13.978;2022-09-20T05:12:53;9.77;;;7.25;;
19030;SDS011;9648;51.130;13.978;2022-09-20T05:15:34;10.95;;;6.57;;
19030;SDS011;9648;51.130;13.978;2022-09-20T05:21:10;7.93;;;6.45;;
19030;SDS011;9648;51.130;13.978;2022-09-20T05:23:55;10.15;;;6.85;;
19030;SDS011;9648;51.130;13.978;2022-09-20T05:26:36;11.23;;;6.93;;
19030;SDS011;9648;51.130;13.978;2022-09-20T05:29:16;10.07;;;6.82;;
19030;SDS011;9648;51.130;13.978;2022-09-20T05:31:50;7.97;;;6.00;;
19030;SDS011;9648;51.130;13.978;2022-09-20T05:34:23;6.70;;;5.93;;
19030;SDS011;9648;51.130;13.978;2022-09-20T05:36:57;9.48;;;6.50;;
19030;SDS011;9648;51.130;13.978;2022-09-20T05:39:34;7.50;;;6.27;;
19030;SDS011;9648;51.130;13.978;2022-09-20T05:42:08;8.47;;;6.70;;
19030;SDS011;9648;51.130;13.978;2022-09-20T05:47:43;9.20;;;6.80;;
19030;SDS011;9648;51.130;13.978;2022-09-20T05:50:23;10.57;;;7.60;;
19030;SDS011;9648;51.130;13.978;2022-09-20T05:53:01;11.35;;;8.07;;
19030;SDS011;9648;51.130;13.978;2022-09-20T05:55:45;9.85;;;7.70;;
19030;SDS011;9648;51.130;13.978;2022-09-20T06:01:15;12.52;;;9.02;;
19030;SDS011;9648;51.130;13.978;2022-09-20T06:03:49;11.47;;;9.20;;
19030;SDS011;9648;51.130;13.978;2022-09-20T06:06:21;11.75;;;8.75;;
19030;SDS011;9648;51.130;13.978;2022-09-20T06:09:03;11.70;;;8.57;;
19030;SDS011;9648;51.130;13.978;2022-09-20T06:11:58;13.40;;;8.38;;
19030;SDS011;9648;51.130;13.978;2022-09-20T06:14:47;11.02;;;8.65;;
19030;SDS011;9648;51.130;13.978;2022-09-20T06:17:23;11.30;;;8.27;;
19030;SDS011;9648;51.130;13.978;2022-09-20T06:20:01;11.52;;;8.65;;
19030;SDS011;9648;51.130;13.978;2022-09-20T06:22:38;12.80;;;9.30;;
19030;SDS011;9648;51.130;13.978;2022-09-20T06:25:12;13.65;;;9.98;;
19030;SDS011;9648;51.130;13.978;2022-09-20T06:27:44;14.65;;;9.52;;
19030;SDS011;9648;51.130;13.978;2022-09-20T06:30:16;18.85;;;10.23;;
19030;SDS011;9648;51.130;13.978;2022-09-20T06:32:56;13.75;;;10.02;;
19030;SDS011;9648;51.130;13.978;2022-09-20T06:35:25;16.60;;;10.70;;
19030;SDS011;9648;51.130;13.978;2022-09-20T06:38:00;17.33;;;10.32;;
19030;SDS011;9648;51.130;13.978;2022-09-20T06:40:52;15.55;;;9.80;;
19030;SDS011;9648;51.130;13.978;2022-09-20T06:43:36;12.65;;;9.20;;
19030;SDS011;9648;51.130;13.978;2022-09-20T06:46:05;15.48;;;10.13;;
19030;SDS011;9648;51.130;13.978;2022-09-20T06:48:33;16.93;;;10.40;;
19030;SDS011;9648;51.130;13.978;2022-09-20T06:51:04;17.98;;;11.15;;
19030;SDS011;9648;51.130;13.978;2022-09-20T06:53:31;18.38;;;10.90;;
19030;SDS011;9648;51.130;13.978;2022-09-20T06:56:02;16.95;;;10.90;;
19030;SDS011;9648;51.130;13.978;2022-09-20T06:58:29;19.00;;;12.13;;
19030;SDS011;9648;51.130;13.978;2022-09-20T07:00:56;15.15;;;11.27;;
19030;SDS011;9648;51.130;13.978;2022-09-20T07:03:23;16.65;;;10.75;;
19030;SDS011;9648;51.130;13.978;2022-09-20T07:05:51;18.40;;;11.10;;
19030;SDS011;9648;51.130;13.978;2022-09-20T07:08:17;18.42;;;11.38;;
19030;SDS011;9648;51.130;13.978;2022-09-20T07:10:44;18.58;;;10.57;;
19030;SDS011;9648;51.130;13.978;2022-09-20T07:13:11;18.85;;;11.45;;
19030;SDS011;9648;51.130;13.978;2022-09-20T07:15:38;16.00;;;10.90;;
19030;SDS011;9648;51.130;13.978;2022-09-20T07:18:05;16.30;;;10.20;;
19030;SDS011;9648;51.130;13.978;2022-09-20T07:20:32;17.30;;;11.02;;
19030;SDS011;9648;51.130;13.978;2022-09-20T07:23:00;15.48;;;9.70;;
19030;SDS011;9648;51.130;13.978;2022-09-20T07:25:27;15.20;;;10.30;;
19030;SDS011;9648;51.130;13.978;2022-09-20T07:27:55;15.38;;;10.65;;
19030;SDS011;9648;51.130;13.978;2022-09-20T07:30:22;12.90;;;9.68;;
19030;SDS011;9648;51.130;13.978;2022-09-20T07:32:49;13.25;;;9.68;;
19030;SDS011;9648;51.130;13.978;2022-09-20T07:35:16;14.70;;;10.90;;
19030;SDS011;9648;51.130;13.978;2022-09-20T07:37:42;13.25;;;10.18;;
19030;SDS011;9648;51.130;13.978;2022-09-20T07:40:11;15.50;;;9.77;;
19030;SDS011;9648;51.130;13.978;2022-09-20T07:42:38;17.35;;;10.70;;
19030;SDS011;9648;51.130;13.978;2022-09-20T07:45:05;14.80;;;9.90;;
19030;SDS011;9648;51.130;13.978;2022-09-20T07:47:33;11.98;;;9.48;;
19030;SDS011;9648;51.130;13.978;2022-09-20T07:50:00;16.67;;;10.32;;
19030;SDS011;9648;51.130;13.978;2022-09-20T07:52:27;15.57;;;10.75;;
19030;SDS011;9648;51.130;13.978;2022-09-20T07:54:54;16.63;;;10.73;;
19030;SDS011;9648;51.130;13.978;2022-09-20T07:57:22;17.17;;;11.07;;
19030;SDS011;9648;51.130;13.978;2022-09-20T07:59:49;18.67;;;11.10;;
19030;SDS011;9648;51.130;13.978;2022-09-20T08:02:16;15.55;;;10.55;;
19030;SDS011;9648;51.130;13.978;2022-09-20T08:04:42;16.85;;;10.43;;
19030;SDS011;9648;51.130;13.978;2022-09-20T08:07:09;17.10;;;10.98;;
19030;SDS011;9648;51.130;13.978;2022-09-20T08:09:36;21.40;;;12.52;;
19030;SDS011;9648;51.130;13.978;2022-09-20T08:12:03;18.70;;;11.65;;
19030;SDS011;9648;51.130;13.978;2022-09-20T08:14:34;17.48;;;12.55;;
19030;SDS011;9648;51.130;13.978;2022-09-20T08:17:00;18.27;;;11.45;;
19030;SDS011;9648;51.130;13.978;2022-09-20T08:19:27;16.75;;;11.73;;
19030;SDS011;9648;51.130;13.978;2022-09-20T08:21:54;16.80;;;11.48;;
19030;SDS011;9648;51.130;13.978;2022-09-20T08:24:21;16.70;;;10.40;;
19030;SDS011;9648;51.130;13.978;2022-09-20T08:26:50;18.27;;;10.37;;
19030;SDS011;9648;51.130;13.978;2022-09-20T08:29:16;20.35;;;10.85;;
19030;SDS011;9648;51.130;13.978;2022-09-20T08:31:44;14.98;;;9.18;;
19030;SDS011;9648;51.130;13.978;2022-09-20T08:34:12;17.20;;;10.02;;
19030;SDS011;9648;51.130;13.978;2022-09-20T08:36:41;14.98;;;9.00;;
19030;SDS011;9648;51.130;13.978;2022-09-20T08:39:10;16.73;;;9.15;;
19030;SDS011;9648;51.130;13.978;2022-09-20T08:41:39;12.50;;;7.80;;
19030;SDS011;9648;51.130;13.978;2022-09-20T08:44:11;12.47;;;7.87;;
19030;SDS011;9648;51.130;13.978;2022-09-20T08:46:42;12.48;;;7.35;;
19030;SDS011;9648;51.130;13.978;2022-09-20T08:49:15;11.05;;;6.95;;
19030;SDS011;9648;51.130;13.978;2022-09-20T08:51:48;12.10;;;6.90;;
19030;SDS011;9648;51.130;13.978;2022-09-20T08:54:16;11.43;;;7.00;;
19030;SDS011;9648;51.130;13.978;2022-09-20T08:56:43;11.50;;;6.43;;
19030;SDS011;9648;51.130;13.978;2022-09-20T08:59:13;10.32;;;6.35;;
19030;SDS011;9648;51.130;13.978;2022-09-20T09:01:42;11.35;;;6.18;;
19030;SDS011;9648;51.130;13.978;2022-09-20T09:04:12;10.15;;;5.80;;
19030;SDS011;9648;51.130;13.978;2022-09-20T09:06:41;9.98;;;6.07;;
19030;SDS011;9648;51.130;13.978;2022-09-20T09:09:10;9.52;;;5.88;;
19030;SDS011;9648;51.130;13.978;2022-09-20T09:11:43;9.32;;;6.15;;
19030;SDS011;9648;51.130;13.978;2022-09-20T09:14:12;10.35;;;5.07;;
19030;SDS011;9648;51.130;13.978;2022-09-20T09:17:07;7.45;;;4.50;;
19030;SDS011;9648;51.130;13.978;2022-09-20T09:19:42;6.68;;;4.00;;
19030;SDS011;9648;51.130;13.978;2022-09-20T09:22:13;8.32;;;4.10;;
19030;SDS011;9648;51.130;13.978;2022-09-20T09:25:08;6.72;;;4.13;;
19030;SDS011;9648;51.130;13.978;2022-09-20T09:27:51;6.83;;;3.90;;
19030;SDS011;9648;51.130;13.978;2022-09-20T09:30:19;5.97;;;3.67;;
19030;SDS011;9648;51.130;13.978;2022-09-20T09:32:48;7.38;;;3.75;;
19030;SDS011;9648;51.130;13.978;2022-09-20T09:35:23;5.30;;;3.50;;
19030;SDS011;9648;51.130;13.978;2022-09-20T09:37:53;6.43;;;3.60;;
19030;SDS011;9648;51.130;13.978;2022-09-20T09:40:22;7.63;;;3.50;;
19030;SDS011;9648;51.130;13.978;2022-09-20T09:42:49;8.02;;;4.15;;
19030;SDS011;9648;51.130;13.978;2022-09-20T09:45:30;5.63;;;3.50;;
19030;SDS011;9648;51.130;13.978;2022-09-20T09:48:00;5.03;;;3.33;;
19030;SDS011;9648;51.130;13.978;2022-09-20T09:50:31;5.30;;;2.78;;
19030;SDS011;9648;51.130;13.978;2022-09-20T09:53:00;7.80;;;2.90;;
19030;SDS011;9648;51.130;13.978;2022-09-20T09:55:40;7.15;;;3.33;;
19030;SDS011;9648;51.130;13.978;2022-09-20T09:58:30;6.40;;;2.93;;
19030;SDS011;9648;51.130;13.978;2022-09-20T10:01:09;5.72;;;2.70;;
19030;SDS011;9648;51.130;13.978;2022-09-20T10:03:50;5.22;;;2.85;;
19030;SDS011;9648;51.130;13.978;2022-09-20T10:06:27;7.50;;;2.92;;
19030;SDS011;9648;51.130;13.978;2022-09-20T10:09:06;4.90;;;2.27;;
19030;SDS011;9648;51.130;13.978;2022-09-20T10:11:44;4.63;;;2.30;;
19030;SDS011;9648;51.130;13.978;2022-09-20T10:14:25;4.32;;;1.90;;
19030;SDS011;9648;51.130;13.978;2022-09-20T10:17:05;4.72;;;2.30;;
19030;SDS011;9648;51.130;13.978;2022-09-20T10:19:49;5.07;;;2.20;;
19030;SDS011;9648;51.130;13.978;2022-09-20T10:22:31;6.85;;;2.30;;
19030;SDS011;9648;51.130;13.978;2022-09-20T10:25:14;6.53;;;2.85;;
19030;SDS011;9648;51.130;13.978;2022-09-20T10:27:52;9.38;;;4.93;;
19030;SDS011;9648;51.130;13.978;2022-09-20T10:30:30;6.32;;;2.75;;
19030;SDS011;9648;51.130;13.978;2022-09-20T10:33:09;5.60;;;3.17;;
19030;SDS011;9648;51.130;13.978;2022-09-20T10:35:54;5.70;;;3.00;;
19030;SDS011;9648;51.130;13.978;2022-09-20T10:38:32;4.90;;;2.80;;
19030;SDS011;9648;51.130;13.978;2022-09-20T10:41:10;4.75;;;2.47;;
19030;SDS011;9648;51.130;13.978;2022-09-20T10:43:58;3.80;;;2.30;;
19030;SDS011;9648;51.130;13.978;2022-09-20T10:46:44;5.13;;;2.60;;
19030;SDS011;9648;51.130;13.978;2022-09-20T10:49:25;3.17;;;2.30;;
19030;SDS011;9648;51.130;13.978;2022-09-20T10:52:03;5.47;;;2.42;;
19030;SDS011;9648;51.130;13.978;2022-09-20T10:54:47;4.15;;;2.60;;
19030;SDS011;9648;51.130;13.978;2022-09-20T10:57:37;3.23;;;2.13;;
19030;SDS011;9648;51.130;13.978;2022-09-20T11:00:18;4.78;;;2.30;;
19030;SDS011;9648;51.130;13.978;2022-09-20T11:02:50;3.63;;;2.13;;
19030;SDS011;9648;51.130;13.978;2022-09-20T11:05:29;3.53;;;2.30;;
19030;SDS011;9648;51.130;13.978;2022-09-20T11:08:05;4.68;;;2.40;;
19030;SDS011;9648;51.130;13.978;2022-09-20T11:10:39;4.75;;;2.40;;
19030;SDS011;9648;51.130;13.978;2022-09-20T11:13:12;3.88;;;2.05;;
19030;SDS011;9648;51.130;13.978;2022-09-20T11:15:45;4.18;;;2.10;;
19030;SDS011;9648;51.130;13.978;2022-09-20T11:18:19;3.83;;;1.55;;
19030;SDS011;9648;51.130;13.978;2022-09-20T11:20:52;5.72;;;2.50;;
19030;SDS011;9648;51.130;13.978;2022-09-20T11:23:27;4.55;;;2.20;;
19030;SDS011;9648;51.130;13.978;2022-09-20T11:26:06;4.25;;;1.60;;
19030;SDS011;9648;51.130;13.978;2022-09-20T11:28:38;4.32;;;1.75;;
19030;SDS011;9648;51.130;13.978;2022-09-20T11:31:08;3.00;;;1.83;;
19030;SDS011;9648;51.130;13.978;2022-09-20T11:33:40;4.90;;;2.50;;
19030;SDS011;9648;51.130;13.978;2022-09-20T11:36:13;5.38;;;2.08;;
19030;SDS011;9648;51.130;13.978;2022-09-20T11:38:45;3.42;;;1.75;;
19030;SDS011;9648;51.130;13.978;2022-09-20T11:41:19;4.40;;;1.70;;
19030;SDS011;9648;51.130;13.978;2022-09-20T11:43:49;3.42;;;1.60;;
19030;SDS011;9648;51.130;13.978;2022-09-20T11:46:18;2.97;;;1.50;;
19030;SDS011;9648;51.130;13.978;2022-09-20T11:48:48;3.42;;;1.50;;
19030;SDS011;9648;51.130;13.978;2022-09-20T11:51:34;4.93;;;2.60;;
19030;SDS011;9648;51.130;13.978;2022-09-20T11:57:06;4.35;;;1.30;;
19030;SDS011;9648;51.130;13.978;2022-09-20T11:59:40;4.07;;;1.42;;
19030;SDS011;9648;51.130;13.978;2022-09-20T12:02:12;4.00;;;1.75;;
19030;SDS011;9648;51.130;13.978;2022-09-20T12:04:45;3.55;;;1.60;;
19030;SDS011;9648;51.130;13.978;2022-09-20T12:07:17;2.90;;;1.40;;
19030;SDS011;9648;51.130;13.978;2022-09-20T12:09:50;5.63;;;1.13;;
19030;SDS011;9648;51.130;13.978;2022-09-20T12:12:26;4.15;;;1.10;;
19030;SDS011;9648;51.130;13.978;2022-09-20T12:14:57;4.15;;;1.10;;
19030;SDS011;9648;51.130;13.978;2022-09-20T12:23:43;3.00;;;1.58;;
19030;SDS011;9648;51.130;13.978;2022-09-20T12:32:43;2.78;;;1.50;;
19030;SDS011;9648;51.130;13.978;2022-09-20T12:38:38;5.03;;;1.60;;
19030;SDS011;9648;51.130;13.978;2022-09-20T12:41:17;4.55;;;1.65;;
19030;SDS011;9648;51.130;13.978;2022-09-20T12:43:49;2.50;;;1.23;;
19030;SDS011;9648;51.130;13.978;2022-09-20T12:46:29;4.88;;;1.60;;
19030;SDS011;9648;51.130;13.978;2022-09-20T12:52:29;2.20;;;1.17;;
19030;SDS011;9648;51.130;13.978;2022-09-20T12:55:37;4.63;;;1.30;;
19030;SDS011;9648;51.130;13.978;2022-09-20T13:10:00;2.40;;;1.02;;
19030;SDS011;9648;51.130;13.978;2022-09-20T13:12:35;1.77;;;0.90;;
19030;SDS011;9648;51.130;13.978;2022-09-20T13:15:03;1.92;;;0.93;;
19030;SDS011;9648;51.130;13.978;2022-09-20T13:17:31;2.13;;;1.10;;
19030;SDS011;9648;51.130;13.978;2022-09-20T13:19:59;2.75;;;1.10;;
19030;SDS011;9648;51.130;13.978;2022-09-20T13:22:28;1.52;;;0.90;;
19030;SDS011;9648;51.130;13.978;2022-09-20T13:25:03;2.25;;;1.00;;
19030;SDS011;9648;51.130;13.978;2022-09-20T13:27:33;3.50;;;1.20;;
19030;SDS011;9648;51.130;13.978;2022-09-20T13:30:08;4.53;;;1.33;;
19030;SDS011;9648;51.130;13.978;2022-09-20T13:32:39;3.22;;;1.20;;
19030;SDS011;9648;51.130;13.978;2022-09-20T13:35:07;3.20;;;1.30;;
19030;SDS011;9648;51.130;13.978;2022-09-20T13:37:39;3.58;;;1.30;;
19030;SDS011;9648;51.130;13.978;2022-09-20T13:40:17;4.32;;;1.35;;
19030;SDS011;9648;51.130;13.978;2022-09-20T13:42:45;3.97;;;1.40;;
19030;SDS011;9648;51.130;13.978;2022-09-20T13:45:13;2.13;;;1.15;;
19030;SDS011;9648;51.130;13.978;2022-09-20T13:47:42;2.78;;;1.10;;
19030;SDS011;9648;51.130;13.978;2022-09-20T13:50:15;6.13;;;1.23;;
19030;SDS011;9648;51.130;13.978;2022-09-20T13:52:46;3.55;;;1.00;;
19030;SDS011;9648;51.130;13.978;2022-09-20T13:58:03;4.43;;;1.10;;
19030;SDS011;9648;51.130;13.978;2022-09-20T14:00:32;1.50;;;1.00;;
19030;SDS011;9648;51.130;13.978;2022-09-20T14:03:02;3.63;;;1.00;;
19030;SDS011;9648;51.130;13.978;2022-09-20T14:05:29;1.45;;;0.70;;
19030;SDS011;9648;51.130;13.978;2022-09-20T14:07:57;1.52;;;0.57;;
19030;SDS011;9648;51.130;13.978;2022-09-20T14:10:27;1.17;;;0.70;;
19030;SDS011;9648;51.130;13.978;2022-09-20T14:12:57;1.70;;;0.70;;
19030;SDS011;9648;51.130;13.978;2022-09-20T14:15:25;2.40;;;0.47;;
19030;SDS011;9648;51.130;13.978;2022-09-20T14:17:54;0.57;;;0.40;;
19030;SDS011;9648;51.130;13.978;2022-09-20T14:20:22;0.95;;;0.43;;
19030;SDS011;9648;51.130;13.978;2022-09-20T14:22:50;1.00;;;0.40;;
19030;SDS011;9648;51.130;13.978;2022-09-20T14:25:18;1.25;;;0.57;;
19030;SDS011;9648;51.130;13.978;2022-09-20T14:27:46;0.68;;;0.40;;
19030;SDS011;9648;51.130;13.978;2022-09-20T14:30:28;0.40;;;0.30;;
19030;SDS011;9648;51.130;13.978;2022-09-20T14:32:55;0.60;;;0.40;;
19030;SDS011;9648;51.130;13.978;2022-09-20T14:35:23;1.20;;;0.40;;
19030;SDS011;9648;51.130;13.978;2022-09-20T14:37:51;0.60;;;0.30;;
19030;SDS011;9648;51.130;13.978;2022-09-20T14:40:22;1.13;;;0.40;;
19030;SDS011;9648;51.130;13.978;2022-09-20T14:42:51;0.50;;;0.40;;
19030;SDS011;9648;51.130;13.978;2022-09-20T14:45:22;0.50;;;0.30;;
19030;SDS011;9648;51.130;13.978;2022-09-20T14:47:53;0.68;;;0.38;;
19030;SDS011;9648;51.130;13.978;2022-09-20T14:50:23;0.50;;;0.30;;
19030;SDS011;9648;51.130;13.978;2022-09-20T14:52:59;1.48;;;0.50;;
19030;SDS011;9648;51.130;13.978;2022-09-20T14:55:31;0.57;;;0.30;;
19030;SDS011;9648;51.130;13.978;2022-09-20T14:57:59;0.40;;;0.32;;
19030;SDS011;9648;51.130;13.978;2022-09-20T15:00:29;0.60;;;0.20;;
19030;SDS011;9648;51.130;13.978;2022-09-20T15:03:12;1.13;;;0.50;;
19030;SDS011;9648;51.130;13.978;2022-09-20T15:05:42;0.80;;;0.50;;
19030;SDS011;9648;51.130;13.978;2022-09-20T15:08:13;0.43;;;0.40;;
19030;SDS011;9648;51.130;13.978;2022-09-20T15:10:41;1.55;;;0.50;;
19030;SDS011;9648;51.130;13.978;2022-09-20T15:13:08;1.15;;;0.90;;
19030;SDS011;9648;51.130;13.978;2022-09-20T15:15:35;2.87;;;1.20;;
19030;SDS011;9648;51.130;13.978;2022-09-20T15:18:03;1.38;;;0.85;;
19030;SDS011;9648;51.130;13.978;2022-09-20T15:20:34;1.40;;;0.80;;
19030;SDS011;9648;51.130;13.978;2022-09-20T15:23:01;0.80;;;0.70;;
19030;SDS011;9648;51.130;13.978;2022-09-20T15:25:27;1.42;;;0.70;;
19030;SDS011;9648;51.130;13.978;2022-09-20T15:27:54;1.83;;;0.60;;
19030;SDS011;9648;51.130;13.978;2022-09-20T15:30:21;1.93;;;0.80;;
19030;SDS011;9648;51.130;13.978;2022-09-20T15:32:48;1.95;;;0.60;;
19030;SDS011;9648;51.130;13.978;2022-09-20T15:35:15;3.90;;;2.47;;
19030;SDS011;9648;51.130;13.978;2022-09-20T15:37:43;4.35;;;2.38;;
19030;SDS011;9648;51.130;13.978;2022-09-20T15:40:10;2.55;;;1.30;;
19030;SDS011;9648;51.130;13.978;2022-09-20T15:42:37;3.42;;;1.92;;
19030;SDS011;9648;51.130;13.978;2022-09-20T15:45:06;3.38;;;1.52;;
19030;SDS011;9648;51.130;13.978;2022-09-20T15:47:34;0.90;;;0.65;;
19030;SDS011;9648;51.130;13.978;2022-09-20T15:50:01;1.98;;;0.70;;
19030;SDS011;9648;51.130;13.978;2022-09-20T15:52:31;1.00;;;0.70;;
19030;SDS011;9648;51.130;13.978;2022-09-20T15:55:01;0.70;;;0.60;;
19030;SDS011;9648;51.130;13.978;2022-09-20T15:57:29;3.00;;;0.73;;
19030;SDS011;9648;51.130;13.978;2022-09-20T15:59:56;1.92;;;0.85;;
19030;SDS011;9648;51.130;13.978;2022-09-20T16:02:23;2.10;;;0.90;;
19030;SDS011;9648;51.130;13.978;2022-09-20T16:04:50;2.60;;;0.80;;
19030;SDS011;9648;51.130;13.978;2022-09-20T16:07:19;1.23;;;0.90;;
19030;SDS011;9648;51.130;13.978;2022-09-20T16:09:50;1.27;;;0.82;;
19030;SDS011;9648;51.130;13.978;2022-09-20T16:12:18;2.50;;;0.80;;
19030;SDS011;9648;51.130;13.978;2022-09-20T16:14:45;1.63;;;0.80;;
19030;SDS011;9648;51.130;13.978;2022-09-20T16:17:12;1.35;;;0.90;;
19030;SDS011;9648;51.130;13.978;2022-09-20T16:19:38;2.33;;;0.80;;